Saint Hilaire, Minnesota
Current Conditions -  °F | °C
As of 2:15 PM on Wednesday 26 Nov 2014 (Local Time) from KTVF Reporting Station
Clear Clear  
Wind Chill: -26°   Ceiling: Unl
Heat Index: -17°   Visibility: 10mi
Dew Point: -22°   Wind: 12mph
Humidity: 66%   Direction: 320°NW
Pressure: 30.4"   Gusts: NA
Location:  48.01°N, 96.21°W
Report Text: KTVF 262015Z AUTO 32010KT 10SM CLR M17/M22 A3040 RMK AO1
Loading
Personal Weather Stations






























Interactive Weather Map New forecast layout! Learn more

10-Day Weather Forecast

Advertisements
Track Severe Weather on mobile